sensor_id;sensor_type;location;lat;lon;timestamp;P1;durP1;ratioP1;P2;durP2;ratioP2
22060;SDS011;11194;48.092;-1.382;2023-11-18T00:01:15;96.68;;;92.78;;
22060;SDS011;11194;48.092;-1.382;2023-11-18T00:03:41;93.40;;;89.63;;
22060;SDS011;11194;48.092;-1.382;2023-11-18T00:06:07;91.03;;;87.35;;
22060;SDS011;11194;48.092;-1.382;2023-11-18T00:08:33;87.95;;;84.35;;
22060;SDS011;11194;48.092;-1.382;2023-11-18T00:10:59;91.93;;;88.15;;
22060;SDS011;11194;48.092;-1.382;2023-11-18T00:13:25;84.93;;;81.43;;
22060;SDS011;11194;48.092;-1.382;2023-11-18T00:15:52;80.40;;;77.10;;
22060;SDS011;11194;48.092;-1.382;2023-11-18T00:18:18;78.28;;;75.07;;
22060;SDS011;11194;48.092;-1.382;2023-11-18T00:20:45;73.28;;;70.28;;
22060;SDS011;11194;48.092;-1.382;2023-11-18T00:23:11;74.68;;;71.60;;
22060;SDS011;11194;48.092;-1.382;2023-11-18T00:25:37;67.22;;;64.45;;
22060;SDS011;11194;48.092;-1.382;2023-11-18T00:28:05;73.45;;;70.45;;
22060;SDS011;11194;48.092;-1.382;2023-11-18T00:30:34;70.47;;;67.57;;
22060;SDS011;11194;48.092;-1.382;2023-11-18T00:33:01;68.57;;;65.78;;
22060;SDS011;11194;48.092;-1.382;2023-11-18T00:35:27;79.43;;;76.22;;
22060;SDS011;11194;48.092;-1.382;2023-11-18T00:37:56;76.00;;;72.90;;
22060;SDS011;11194;48.092;-1.382;2023-11-18T00:40:23;80.95;;;77.65;;
22060;SDS011;11194;48.092;-1.382;2023-11-18T00:42:49;97.55;;;93.60;;
22060;SDS011;11194;48.092;-1.382;2023-11-18T00:45:15;112.20;;;107.63;;
22060;SDS011;11194;48.092;-1.382;2023-11-18T00:47:43;117.07;;;112.28;;
22060;SDS011;11194;48.092;-1.382;2023-11-18T00:50:09;115.38;;;110.68;;
22060;SDS011;11194;48.092;-1.382;2023-11-18T00:52:35;124.72;;;119.63;;
22060;SDS011;11194;48.092;-1.382;2023-11-18T00:55:07;120.97;;;115.97;;
22060;SDS011;11194;48.092;-1.382;2023-11-18T00:57:34;118.32;;;113.43;;
22060;SDS011;11194;48.092;-1.382;2023-11-18T01:00:00;118.32;;;113.43;;
22060;SDS011;11194;48.092;-1.382;2023-11-18T01:02:26;108.07;;;103.60;;
22060;SDS011;11194;48.092;-1.382;2023-11-18T01:04:55;111.63;;;107.03;;
22060;SDS011;11194;48.092;-1.382;2023-11-18T01:07:21;109.95;;;105.35;;
22060;SDS011;11194;48.092;-1.382;2023-11-18T01:09:47;112.78;;;108.07;;
22060;SDS011;11194;48.092;-1.382;2023-11-18T01:12:14;104.72;;;100.32;;
22060;SDS011;11194;48.092;-1.382;2023-11-18T01:14:40;100.85;;;96.63;;
22060;SDS011;11194;48.092;-1.382;2023-11-18T01:17:07;98.55;;;94.45;;
22060;SDS011;11194;48.092;-1.382;2023-11-18T01:19:34;102.70;;;98.43;;
22060;SDS011;11194;48.092;-1.382;2023-11-18T01:22:00;98.78;;;94.65;;
22060;SDS011;11194;48.092;-1.382;2023-11-18T01:24:30;104.93;;;100.53;;
22060;SDS011;11194;48.092;-1.382;2023-11-18T01:26:56;102.13;;;97.93;;
22060;SDS011;11194;48.092;-1.382;2023-11-18T01:29:24;96.13;;;92.13;;
22060;SDS011;11194;48.092;-1.382;2023-11-18T01:31:50;97.80;;;93.70;;
22060;SDS011;11194;48.092;-1.382;2023-11-18T01:34:17;102.72;;;98.43;;
22060;SDS011;11194;48.092;-1.382;2023-11-18T01:36:46;106.10;;;101.70;;
22060;SDS011;11194;48.092;-1.382;2023-11-18T01:39:14;114.25;;;109.53;;
22060;SDS011;11194;48.092;-1.382;2023-11-18T01:41:40;117.90;;;113.00;;
22060;SDS011;11194;48.092;-1.382;2023-11-18T01:44:06;118.20;;;113.20;;
22060;SDS011;11194;48.092;-1.382;2023-11-18T01:46:33;118.93;;;113.90;;
22060;SDS011;11194;48.092;-1.382;2023-11-18T01:49:01;120.20;;;115.13;;
22060;SDS011;11194;48.092;-1.382;2023-11-18T01:51:28;116.03;;;111.07;;
22060;SDS011;11194;48.092;-1.382;2023-11-18T01:53:55;111.32;;;106.63;;
22060;SDS011;11194;48.092;-1.382;2023-11-18T01:56:22;109.95;;;105.35;;
22060;SDS011;11194;48.092;-1.382;2023-11-18T01:58:50;120.38;;;115.38;;
22060;SDS011;11194;48.092;-1.382;2023-11-18T02:01:16;118.85;;;113.85;;
22060;SDS011;11194;48.092;-1.382;2023-11-18T02:03:43;122.72;;;117.53;;
22060;SDS011;11194;48.092;-1.382;2023-11-18T02:06:09;126.22;;;120.93;;
22060;SDS011;11194;48.092;-1.382;2023-11-18T02:08:35;120.63;;;115.53;;
22060;SDS011;11194;48.092;-1.382;2023-11-18T02:11:14;127.65;;;122.22;;
22060;SDS011;11194;48.092;-1.382;2023-11-18T02:13:42;123.20;;;117.95;;
22060;SDS011;11194;48.092;-1.382;2023-11-18T02:16:10;122.88;;;117.65;;
22060;SDS011;11194;48.092;-1.382;2023-11-18T02:18:36;116.22;;;111.25;;
22060;SDS011;11194;48.092;-1.382;2023-11-18T02:21:04;117.35;;;112.35;;
22060;SDS011;11194;48.092;-1.382;2023-11-18T02:23:33;117.88;;;112.93;;
22060;SDS011;11194;48.092;-1.382;2023-11-18T02:25:59;118.32;;;113.32;;
22060;SDS011;11194;48.092;-1.382;2023-11-18T02:28:26;121.30;;;116.15;;
22060;SDS011;11194;48.092;-1.382;2023-11-18T02:30:56;121.55;;;116.38;;
22060;SDS011;11194;48.092;-1.382;2023-11-18T02:35:54;125.60;;;120.30;;
22060;SDS011;11194;48.092;-1.382;2023-11-18T02:38:22;128.55;;;123.18;;
22060;SDS011;11194;48.092;-1.382;2023-11-18T02:40:50;127.78;;;122.38;;
22060;SDS011;11194;48.092;-1.382;2023-11-18T02:43:18;125.65;;;120.35;;
22060;SDS011;11194;48.092;-1.382;2023-11-18T02:45:44;128.30;;;122.88;;
22060;SDS011;11194;48.092;-1.382;2023-11-18T02:48:11;130.90;;;125.35;;
22060;SDS011;11194;48.092;-1.382;2023-11-18T02:50:38;135.20;;;129.45;;
22060;SDS011;11194;48.092;-1.382;2023-11-18T02:53:06;136.60;;;130.75;;
22060;SDS011;11194;48.092;-1.382;2023-11-18T02:55:34;136.10;;;130.30;;
22060;SDS011;11194;48.092;-1.382;2023-11-18T02:58:00;138.40;;;132.50;;
22060;SDS011;11194;48.092;-1.382;2023-11-18T03:00:27;142.85;;;136.77;;
22060;SDS011;11194;48.092;-1.382;2023-11-18T03:02:53;146.13;;;139.88;;
22060;SDS011;11194;48.092;-1.382;2023-11-18T03:05:20;150.88;;;144.48;;
22060;SDS011;11194;48.092;-1.382;2023-11-18T03:07:49;146.20;;;139.90;;
22060;SDS011;11194;48.092;-1.382;2023-11-18T03:10:17;150.18;;;143.77;;
22060;SDS011;11194;48.092;-1.382;2023-11-18T03:12:49;152.60;;;146.10;;
22060;SDS011;11194;48.092;-1.382;2023-11-18T03:15:16;147.38;;;141.05;;
22060;SDS011;11194;48.092;-1.382;2023-11-18T03:17:43;142.32;;;136.13;;
22060;SDS011;11194;48.092;-1.382;2023-11-18T03:20:10;157.50;;;150.80;;
22060;SDS011;11194;48.092;-1.382;2023-11-18T03:22:39;158.25;;;151.48;;
22060;SDS011;11194;48.092;-1.382;2023-11-18T03:25:05;153.10;;;146.52;;
22060;SDS011;11194;48.092;-1.382;2023-11-18T03:27:32;154.77;;;148.07;;
22060;SDS011;11194;48.092;-1.382;2023-11-18T03:29:59;147.10;;;140.70;;
22060;SDS011;11194;48.092;-1.382;2023-11-18T03:32:25;141.93;;;135.68;;
22060;SDS011;11194;48.092;-1.382;2023-11-18T03:34:51;153.80;;;147.13;;
22060;SDS011;11194;48.092;-1.382;2023-11-18T03:37:17;154.35;;;147.75;;
22060;SDS011;11194;48.092;-1.382;2023-11-18T03:39:44;154.93;;;148.23;;
22060;SDS011;11194;48.092;-1.382;2023-11-18T03:42:10;156.98;;;150.18;;
22060;SDS011;11194;48.092;-1.382;2023-11-18T03:44:36;145.40;;;139.10;;
22060;SDS011;11194;48.092;-1.382;2023-11-18T03:47:02;158.55;;;151.65;;
22060;SDS011;11194;48.092;-1.382;2023-11-18T03:49:28;148.30;;;141.85;;
22060;SDS011;11194;48.092;-1.382;2023-11-18T03:51:54;149.30;;;142.93;;
22060;SDS011;11194;48.092;-1.382;2023-11-18T03:54:20;149.52;;;143.02;;
22060;SDS011;11194;48.092;-1.382;2023-11-18T03:56:47;159.77;;;152.82;;
22060;SDS011;11194;48.092;-1.382;2023-11-18T03:59:13;157.57;;;150.68;;
22060;SDS011;11194;48.092;-1.382;2023-11-18T04:01:39;172.32;;;164.65;;
22060;SDS011;11194;48.092;-1.382;2023-11-18T04:04:06;170.15;;;162.57;;
22060;SDS011;11194;48.092;-1.382;2023-11-18T04:06:32;171.10;;;163.52;;
22060;SDS011;11194;48.092;-1.382;2023-11-18T04:09:00;169.05;;;161.75;;
22060;SDS011;11194;48.092;-1.382;2023-11-18T04:11:26;160.05;;;153.05;;
22060;SDS011;11194;48.092;-1.382;2023-11-18T04:13:52;152.95;;;146.25;;
22060;SDS011;11194;48.092;-1.382;2023-11-18T04:16:18;149.15;;;142.68;;
22060;SDS011;11194;48.092;-1.382;2023-11-18T04:18:44;165.27;;;158.02;;
22060;SDS011;11194;48.092;-1.382;2023-11-18T04:21:11;167.48;;;160.18;;
22060;SDS011;11194;48.092;-1.382;2023-11-18T04:23:41;170.18;;;162.75;;
22060;SDS011;11194;48.092;-1.382;2023-11-18T04:26:08;159.13;;;152.07;;
22060;SDS011;11194;48.092;-1.382;2023-11-18T04:28:35;245.52;;;234.50;;
22060;SDS011;11194;48.092;-1.382;2023-11-18T04:31:01;158.40;;;151.43;;
22060;SDS011;11194;48.092;-1.382;2023-11-18T04:33:28;146.95;;;140.60;;
22060;SDS011;11194;48.092;-1.382;2023-11-18T04:35:54;141.27;;;135.15;;
22060;SDS011;11194;48.092;-1.382;2023-11-18T04:38:23;136.98;;;130.95;;
22060;SDS011;11194;48.092;-1.382;2023-11-18T04:40:50;131.18;;;125.43;;
22060;SDS011;11194;48.092;-1.382;2023-11-18T04:43:17;154.80;;;148.13;;
22060;SDS011;11194;48.092;-1.382;2023-11-18T04:45:44;132.00;;;126.28;;
22060;SDS011;11194;48.092;-1.382;2023-11-18T04:48:10;129.90;;;124.25;;
22060;SDS011;11194;48.092;-1.382;2023-11-18T04:50:38;135.52;;;129.77;;
22060;SDS011;11194;48.092;-1.382;2023-11-18T04:53:04;134.60;;;128.98;;
22060;SDS011;11194;48.092;-1.382;2023-11-18T04:55:33;125.82;;;120.60;;
22060;SDS011;11194;48.092;-1.382;2023-11-18T04:58:03;125.43;;;120.00;;
22060;SDS011;11194;48.092;-1.382;2023-11-18T05:00:31;123.93;;;118.63;;
22060;SDS011;11194;48.092;-1.382;2023-11-18T05:02:57;124.90;;;119.57;;
22060;SDS011;11194;48.092;-1.382;2023-11-18T05:05:23;123.50;;;118.22;;
22060;SDS011;11194;48.092;-1.382;2023-11-18T05:07:49;136.80;;;131.05;;
22060;SDS011;11194;48.092;-1.382;2023-11-18T05:10:15;147.43;;;141.18;;
22060;SDS011;11194;48.092;-1.382;2023-11-18T05:12:41;156.55;;;149.77;;
22060;SDS011;11194;48.092;-1.382;2023-11-18T05:15:09;163.43;;;155.88;;
22060;SDS011;11194;48.092;-1.382;2023-11-18T05:17:36;166.80;;;159.25;;
22060;SDS011;11194;48.092;-1.382;2023-11-18T05:20:05;165.82;;;158.27;;
22060;SDS011;11194;48.092;-1.382;2023-11-18T05:22:36;180.60;;;172.32;;
22060;SDS011;11194;48.092;-1.382;2023-11-18T05:25:02;177.18;;;169.05;;
22060;SDS011;11194;48.092;-1.382;2023-11-18T05:27:32;186.68;;;178.07;;
22060;SDS011;11194;48.092;-1.382;2023-11-18T05:29:58;183.20;;;174.90;;
22060;SDS011;11194;48.092;-1.382;2023-11-18T05:32:27;176.63;;;168.70;;
22060;SDS011;11194;48.092;-1.382;2023-11-18T05:34:54;161.30;;;154.00;;
22060;SDS011;11194;48.092;-1.382;2023-11-18T05:37:22;173.95;;;166.05;;
22060;SDS011;11194;48.092;-1.382;2023-11-18T05:39:48;171.60;;;163.90;;
22060;SDS011;11194;48.092;-1.382;2023-11-18T05:42:23;163.90;;;156.55;;
22060;SDS011;11194;48.092;-1.382;2023-11-18T05:44:50;167.93;;;160.35;;
22060;SDS011;11194;48.092;-1.382;2023-11-18T05:47:23;166.38;;;158.70;;
22060;SDS011;11194;48.092;-1.382;2023-11-18T05:49:50;153.27;;;146.40;;
22060;SDS011;11194;48.092;-1.382;2023-11-18T05:52:16;157.68;;;150.57;;
22060;SDS011;11194;48.092;-1.382;2023-11-18T05:54:42;166.90;;;159.40;;
22060;SDS011;11194;48.092;-1.382;2023-11-18T05:57:09;160.88;;;153.68;;
22060;SDS011;11194;48.092;-1.382;2023-11-18T05:59:35;150.32;;;143.63;;
22060;SDS011;11194;48.092;-1.382;2023-11-18T06:02:01;151.13;;;144.43;;
22060;SDS011;11194;48.092;-1.382;2023-11-18T06:04:28;156.70;;;149.77;;
22060;SDS011;11194;48.092;-1.382;2023-11-18T06:06:56;161.45;;;154.25;;
22060;SDS011;11194;48.092;-1.382;2023-11-18T06:09:22;165.27;;;157.90;;
22060;SDS011;11194;48.092;-1.382;2023-11-18T06:11:53;166.70;;;159.32;;
22060;SDS011;11194;48.092;-1.382;2023-11-18T06:14:20;171.02;;;163.35;;
22060;SDS011;11194;48.092;-1.382;2023-11-18T06:16:49;166.00;;;158.60;;
22060;SDS011;11194;48.092;-1.382;2023-11-18T06:19:15;171.98;;;164.30;;
22060;SDS011;11194;48.092;-1.382;2023-11-18T06:21:41;162.95;;;155.75;;
22060;SDS011;11194;48.092;-1.382;2023-11-18T06:24:08;159.57;;;152.45;;
22060;SDS011;11194;48.092;-1.382;2023-11-18T06:26:36;168.75;;;161.25;;
22060;SDS011;11194;48.092;-1.382;2023-11-18T06:29:02;160.38;;;153.15;;
22060;SDS011;11194;48.092;-1.382;2023-11-18T06:31:32;168.48;;;160.85;;
22060;SDS011;11194;48.092;-1.382;2023-11-18T06:33:58;177.60;;;169.43;;
22060;SDS011;11194;48.092;-1.382;2023-11-18T06:36:26;196.50;;;187.70;;
22060;SDS011;11194;48.092;-1.382;2023-11-18T06:38:53;203.38;;;194.27;;
22060;SDS011;11194;48.092;-1.382;2023-11-18T06:41:21;212.93;;;203.27;;
22060;SDS011;11194;48.092;-1.382;2023-11-18T06:44:02;203.43;;;194.18;;
22060;SDS011;11194;48.092;-1.382;2023-11-18T06:46:34;217.45;;;207.82;;
22060;SDS011;11194;48.092;-1.382;2023-11-18T06:49:02;202.48;;;193.52;;
22060;SDS011;11194;48.092;-1.382;2023-11-18T06:51:40;202.77;;;193.60;;
22060;SDS011;11194;48.092;-1.382;2023-11-18T06:54:06;187.55;;;178.85;;
22060;SDS011;11194;48.092;-1.382;2023-11-18T06:56:36;203.45;;;193.95;;
22060;SDS011;11194;48.092;-1.382;2023-11-18T06:59:07;203.43;;;194.48;;
22060;SDS011;11194;48.092;-1.382;2023-11-18T07:01:35;200.45;;;191.68;;
22060;SDS011;11194;48.092;-1.382;2023-11-18T07:04:01;211.25;;;202.18;;
22060;SDS011;11194;48.092;-1.382;2023-11-18T07:06:28;196.80;;;188.07;;
22060;SDS011;11194;48.092;-1.382;2023-11-18T07:08:54;190.98;;;182.60;;
22060;SDS011;11194;48.092;-1.382;2023-11-18T07:11:25;194.20;;;185.70;;
22060;SDS011;11194;48.092;-1.382;2023-11-18T07:13:51;195.05;;;186.38;;
22060;SDS011;11194;48.092;-1.382;2023-11-18T07:16:22;199.35;;;190.48;;
22060;SDS011;11194;48.092;-1.382;2023-11-18T07:18:49;193.10;;;184.48;;
22060;SDS011;11194;48.092;-1.382;2023-11-18T07:21:15;193.98;;;185.40;;
22060;SDS011;11194;48.092;-1.382;2023-11-18T07:23:43;188.35;;;179.95;;
22060;SDS011;11194;48.092;-1.382;2023-11-18T07:26:09;192.32;;;183.80;;
22060;SDS011;11194;48.092;-1.382;2023-11-18T07:28:35;187.90;;;179.57;;
22060;SDS011;11194;48.092;-1.382;2023-11-18T07:31:01;188.00;;;179.60;;
22060;SDS011;11194;48.092;-1.382;2023-11-18T07:33:30;187.45;;;179.18;;
22060;SDS011;11194;48.092;-1.382;2023-11-18T07:35:59;180.68;;;172.63;;
22060;SDS011;11194;48.092;-1.382;2023-11-18T07:38:27;186.02;;;177.68;;
22060;SDS011;11194;48.092;-1.382;2023-11-18T07:40:53;189.57;;;181.18;;
22060;SDS011;11194;48.092;-1.382;2023-11-18T07:43:21;189.50;;;181.10;;
22060;SDS011;11194;48.092;-1.382;2023-11-18T07:45:47;196.85;;;187.75;;
22060;SDS011;11194;48.092;-1.382;2023-11-18T07:48:18;196.55;;;187.68;;
22060;SDS011;11194;48.092;-1.382;2023-11-18T07:50:45;203.82;;;194.68;;
22060;SDS011;11194;48.092;-1.382;2023-11-18T07:53:15;200.63;;;191.73;;
22060;SDS011;11194;48.092;-1.382;2023-11-18T07:55:41;200.23;;;191.35;;
22060;SDS011;11194;48.092;-1.382;2023-11-18T07:58:08;193.32;;;184.88;;
22060;SDS011;11194;48.092;-1.382;2023-11-18T08:00:36;198.50;;;189.68;;
22060;SDS011;11194;48.092;-1.382;2023-11-18T08:03:04;196.35;;;187.60;;
22060;SDS011;11194;48.092;-1.382;2023-11-18T08:05:32;200.55;;;191.60;;
22060;SDS011;11194;48.092;-1.382;2023-11-18T08:07:58;206.13;;;197.02;;
22060;SDS011;11194;48.092;-1.382;2023-11-18T08:10:24;203.77;;;194.77;;
22060;SDS011;11194;48.092;-1.382;2023-11-18T08:12:51;211.60;;;201.82;;
22060;SDS011;11194;48.092;-1.382;2023-11-18T08:15:19;211.65;;;201.70;;
22060;SDS011;11194;48.092;-1.382;2023-11-18T08:17:45;215.45;;;205.43;;
22060;SDS011;11194;48.092;-1.382;2023-11-18T08:20:11;211.60;;;201.82;;
22060;SDS011;11194;48.092;-1.382;2023-11-18T08:22:43;209.45;;;199.57;;
22060;SDS011;11194;48.092;-1.382;2023-11-18T08:25:10;206.93;;;197.27;;
22060;SDS011;11194;48.092;-1.382;2023-11-18T08:27:38;214.80;;;205.00;;
22060;SDS011;11194;48.092;-1.382;2023-11-18T08:30:04;210.18;;;200.48;;
22060;SDS011;11194;48.092;-1.382;2023-11-18T08:32:35;210.10;;;200.35;;
22060;SDS011;11194;48.092;-1.382;2023-11-18T08:35:03;208.68;;;198.98;;
22060;SDS011;11194;48.092;-1.382;2023-11-18T08:37:31;203.93;;;194.50;;
22060;SDS011;11194;48.092;-1.382;2023-11-18T08:39:57;206.20;;;196.73;;
22060;SDS011;11194;48.092;-1.382;2023-11-18T08:42:25;204.88;;;195.52;;
22060;SDS011;11194;48.092;-1.382;2023-11-18T08:44:52;207.68;;;198.20;;
22060;SDS011;11194;48.092;-1.382;2023-11-18T08:47:20;208.77;;;199.38;;
22060;SDS011;11194;48.092;-1.382;2023-11-18T08:49:46;206.60;;;197.23;;
22060;SDS011;11194;48.092;-1.382;2023-11-18T08:52:12;205.90;;;196.57;;
22060;SDS011;11194;48.092;-1.382;2023-11-18T08:54:38;210.52;;;200.85;;
22060;SDS011;11194;48.092;-1.382;2023-11-18T08:57:25;213.05;;;203.30;;
22060;SDS011;11194;48.092;-1.382;2023-11-18T08:59:51;211.05;;;201.50;;
22060;SDS011;11194;48.092;-1.382;2023-11-18T09:02:17;214.85;;;205.13;;
22060;SDS011;11194;48.092;-1.382;2023-11-18T09:04:48;214.10;;;204.40;;
22060;SDS011;11194;48.092;-1.382;2023-11-18T09:07:14;212.00;;;202.30;;
22060;SDS011;11194;48.092;-1.382;2023-11-18T09:09:40;218.95;;;208.85;;
22060;SDS011;11194;48.092;-1.382;2023-11-18T09:12:06;209.23;;;199.60;;
22060;SDS011;11194;48.092;-1.382;2023-11-18T09:14:33;222.98;;;212.77;;
22060;SDS011;11194;48.092;-1.382;2023-11-18T09:16:59;213.63;;;203.80;;
22060;SDS011;11194;48.092;-1.382;2023-11-18T09:19:27;208.13;;;198.40;;
22060;SDS011;11194;48.092;-1.382;2023-11-18T09:21:53;218.50;;;208.43;;
22060;SDS011;11194;48.092;-1.382;2023-11-18T09:24:20;215.27;;;205.40;;
22060;SDS011;11194;48.092;-1.382;2023-11-18T09:26:49;212.73;;;202.93;;
22060;SDS011;11194;48.092;-1.382;2023-11-18T09:29:18;209.73;;;199.57;;
22060;SDS011;11194;48.092;-1.382;2023-11-18T09:31:49;198.70;;;189.25;;
22060;SDS011;11194;48.092;-1.382;2023-11-18T09:34:17;216.00;;;205.63;;
22060;SDS011;11194;48.092;-1.382;2023-11-18T09:36:43;205.25;;;195.40;;
22060;SDS011;11194;48.092;-1.382;2023-11-18T09:39:10;203.80;;;193.88;;
22060;SDS011;11194;48.092;-1.382;2023-11-18T09:41:54;203.05;;;193.48;;
22060;SDS011;11194;48.092;-1.382;2023-11-18T09:44:21;207.48;;;197.70;;
22060;SDS011;11194;48.092;-1.382;2023-11-18T09:46:48;217.13;;;207.02;;
22060;SDS011;11194;48.092;-1.382;2023-11-18T09:49:26;205.77;;;196.02;;
22060;SDS011;11194;48.092;-1.382;2023-11-18T09:51:58;202.77;;;193.32;;
22060;SDS011;11194;48.092;-1.382;2023-11-18T09:57:19;202.10;;;192.70;;
22060;SDS011;11194;48.092;-1.382;2023-11-18T09:59:54;209.20;;;199.50;;
22060;SDS011;11194;48.092;-1.382;2023-11-18T10:02:23;199.88;;;190.57;;
22060;SDS011;11194;48.092;-1.382;2023-11-18T10:04:49;211.13;;;201.45;;
22060;SDS011;11194;48.092;-1.382;2023-11-18T10:07:23;215.20;;;205.30;;
22060;SDS011;11194;48.092;-1.382;2023-11-18T10:09:52;223.82;;;213.63;;
22060;SDS011;11194;48.092;-1.382;2023-11-18T10:12:22;217.88;;;207.68;;
22060;SDS011;11194;48.092;-1.382;2023-11-18T10:14:49;220.60;;;210.35;;
22060;SDS011;11194;48.092;-1.382;2023-11-18T10:17:17;224.13;;;213.68;;
22060;SDS011;11194;48.092;-1.382;2023-11-18T10:22:37;232.55;;;221.50;;
22060;SDS011;11194;48.092;-1.382;2023-11-18T10:25:03;231.98;;;221.02;;
22060;SDS011;11194;48.092;-1.382;2023-11-18T10:27:31;242.73;;;231.35;;
22060;SDS011;11194;48.092;-1.382;2023-11-18T10:30:04;245.77;;;233.93;;
22060;SDS011;11194;48.092;-1.382;2023-11-18T10:32:44;243.43;;;231.77;;
22060;SDS011;11194;48.092;-1.382;2023-11-18T10:35:11;242.80;;;231.30;;
22060;SDS011;11194;48.092;-1.382;2023-11-18T10:37:37;243.45;;;231.82;;
22060;SDS011;11194;48.092;-1.382;2023-11-18T10:40:08;235.40;;;223.98;;
22060;SDS011;11194;48.092;-1.382;2023-11-18T10:42:37;238.23;;;226.55;;
22060;SDS011;11194;48.092;-1.382;2023-11-18T10:45:04;250.40;;;238.45;;
22060;SDS011;11194;48.092;-1.382;2023-11-18T10:47:33;241.10;;;229.63;;
22060;SDS011;11194;48.092;-1.382;2023-11-18T10:50:06;240.75;;;229.77;;
22060;SDS011;11194;48.092;-1.382;2023-11-18T10:52:34;245.25;;;234.15;;
22060;SDS011;11194;48.092;-1.382;2023-11-18T10:55:02;238.80;;;227.95;;
22060;SDS011;11194;48.092;-1.382;2023-11-18T10:57:38;244.43;;;233.63;;
22060;SDS011;11194;48.092;-1.382;2023-11-18T11:00:07;246.95;;;235.82;;
22060;SDS011;11194;48.092;-1.382;2023-11-18T11:02:39;236.77;;;225.98;;
22060;SDS011;11194;48.092;-1.382;2023-11-18T11:05:10;237.25;;;226.45;;
22060;SDS011;11194;48.092;-1.382;2023-11-18T11:07:44;243.98;;;233.02;;
22060;SDS011;11194;48.092;-1.382;2023-11-18T11:10:10;251.90;;;240.70;;
22060;SDS011;11194;48.092;-1.382;2023-11-18T11:12:51;263.90;;;252.05;;
22060;SDS011;11194;48.092;-1.382;2023-11-18T11:15:31;261.95;;;250.38;;
22060;SDS011;11194;48.092;-1.382;2023-11-18T11:18:07;239.10;;;228.43;;
22060;SDS011;11194;48.092;-1.382;2023-11-18T11:20:34;250.32;;;239.10;;
22060;SDS011;11194;48.092;-1.382;2023-11-18T11:28:37;263.40;;;251.25;;
22060;SDS011;11194;48.092;-1.382;2023-11-18T11:31:18;271.65;;;259.40;;
22060;SDS011;11194;48.092;-1.382;2023-11-18T11:33:57;266.90;;;254.85;;
22060;SDS011;11194;48.092;-1.382;2023-11-18T11:36:25;259.08;;;247.52;;
22060;SDS011;11194;48.092;-1.382;2023-11-18T11:38:57;259.92;;;248.13;;
22060;SDS011;11194;48.092;-1.382;2023-11-18T11:41:23;246.32;;;235.07;;
22060;SDS011;11194;48.092;-1.382;2023-11-18T11:43:52;259.88;;;248.18;;
22060;SDS011;11194;48.092;-1.382;2023-11-18T11:46:20;262.48;;;250.77;;
22060;SDS011;11194;48.092;-1.382;2023-11-18T11:48:48;267.75;;;255.85;;
22060;SDS011;11194;48.092;-1.382;2023-11-18T11:51:31;270.15;;;258.13;;
22060;SDS011;11194;48.092;-1.382;2023-11-18T11:54:04;269.63;;;257.67;;
22060;SDS011;11194;48.092;-1.382;2023-11-18T11:56:43;251.73;;;240.48;;
22060;SDS011;11194;48.092;-1.382;2023-11-18T11:59:12;251.95;;;240.85;;
22060;SDS011;11194;48.092;-1.382;2023-11-18T12:01:38;239.02;;;228.38;;
22060;SDS011;11194;48.092;-1.382;2023-11-18T12:04:08;261.30;;;249.40;;
22060;SDS011;11194;48.092;-1.382;2023-11-18T12:06:45;248.40;;;237.05;;
22060;SDS011;11194;48.092;-1.382;2023-11-18T12:09:12;242.48;;;231.50;;
22060;SDS011;11194;48.092;-1.382;2023-11-18T12:11:44;252.75;;;241.32;;
22060;SDS011;11194;48.092;-1.382;2023-11-18T12:14:14;256.27;;;244.80;;
22060;SDS011;11194;48.092;-1.382;2023-11-18T12:17:00;235.35;;;224.65;;
22060;SDS011;11194;48.092;-1.382;2023-11-18T12:19:32;230.15;;;219.63;;
22060;SDS011;11194;48.092;-1.382;2023-11-18T12:22:11;220.80;;;210.80;;
22060;SDS011;11194;48.092;-1.382;2023-11-18T12:24:42;216.75;;;207.02;;
22060;SDS011;11194;48.092;-1.382;2023-11-18T12:27:09;211.32;;;201.88;;
22060;SDS011;11194;48.092;-1.382;2023-11-18T12:29:44;180.02;;;171.93;;
22060;SDS011;11194;48.092;-1.382;2023-11-18T12:32:10;171.27;;;163.57;;
22060;SDS011;11194;48.092;-1.382;2023-11-18T12:34:54;155.45;;;148.55;;
22060;SDS011;11194;48.092;-1.382;2023-11-18T12:37:46;165.25;;;158.05;;
22060;SDS011;11194;48.092;-1.382;2023-11-18T12:42:58;162.10;;;155.10;;
22060;SDS011;11194;48.092;-1.382;2023-11-18T12:47:57;171.63;;;164.23;;
22060;SDS011;11194;48.092;-1.382;2023-11-18T12:50:27;174.40;;;166.90;;
22060;SDS011;11194;48.092;-1.382;2023-11-18T12:52:57;155.90;;;149.23;;
22060;SDS011;11194;48.092;-1.382;2023-11-18T12:55:23;150.15;;;143.85;;
22060;SDS011;11194;48.092;-1.382;2023-11-18T12:57:51;157.50;;;150.90;;
22060;SDS011;11194;48.092;-1.382;2023-11-18T13:00:19;124.25;;;118.95;;
22060;SDS011;11194;48.092;-1.382;2023-11-18T13:02:53;121.95;;;116.85;;
22060;SDS011;11194;48.092;-1.382;2023-11-18T13:05:19;124.53;;;119.43;;
22060;SDS011;11194;48.092;-1.382;2023-11-18T13:07:45;127.57;;;122.38;;
22060;SDS011;11194;48.092;-1.382;2023-11-18T13:10:12;128.48;;;123.25;;
22060;SDS011;11194;48.092;-1.382;2023-11-18T13:12:40;137.93;;;132.25;;
22060;SDS011;11194;48.092;-1.382;2023-11-18T13:15:08;137.18;;;131.57;;
22060;SDS011;11194;48.092;-1.382;2023-11-18T13:17:34;133.45;;;128.05;;
22060;SDS011;11194;48.092;-1.382;2023-11-18T13:20:15;142.65;;;136.85;;
22060;SDS011;11194;48.092;-1.382;2023-11-18T13:22:44;152.05;;;145.88;;
22060;SDS011;11194;48.092;-1.382;2023-11-18T13:25:10;136.68;;;131.10;;
22060;SDS011;11194;48.092;-1.382;2023-11-18T13:27:39;131.80;;;126.50;;
22060;SDS011;11194;48.092;-1.382;2023-11-18T13:30:05;129.43;;;124.20;;
22060;SDS011;11194;48.092;-1.382;2023-11-18T13:32:37;135.13;;;129.65;;
22060;SDS011;11194;48.092;-1.382;2023-11-18T13:35:05;141.98;;;136.27;;
22060;SDS011;11194;48.092;-1.382;2023-11-18T13:37:32;136.52;;;131.02;;
22060;SDS011;11194;48.092;-1.382;2023-11-18T13:39:58;142.57;;;136.90;;
22060;SDS011;11194;48.092;-1.382;2023-11-18T13:42:25;146.65;;;140.75;;
22060;SDS011;11194;48.092;-1.382;2023-11-18T13:44:53;139.27;;;133.68;;
22060;SDS011;11194;48.092;-1.382;2023-11-18T13:47:19;141.50;;;135.88;;
22060;SDS011;11194;48.092;-1.382;2023-11-18T13:49:48;135.68;;;130.32;;
22060;SDS011;11194;48.092;-1.382;2023-11-18T13:52:15;141.43;;;135.82;;
22060;SDS011;11194;48.092;-1.382;2023-11-18T13:54:43;144.38;;;138.57;;
22060;SDS011;11194;48.092;-1.382;2023-11-18T13:57:10;152.73;;;146.63;;
22060;SDS011;11194;48.092;-1.382;2023-11-18T13:59:37;165.88;;;159.35;;
22060;SDS011;11194;48.092;-1.382;2023-11-18T14:02:09;170.90;;;164.23;;
22060;SDS011;11194;48.092;-1.382;2023-11-18T14:04:35;172.10;;;165.23;;
22060;SDS011;11194;48.092;-1.382;2023-11-18T14:07:02;189.05;;;181.35;;
22060;SDS011;11194;48.092;-1.382;2023-11-18T14:09:30;196.88;;;189.00;;
22060;SDS011;11194;48.092;-1.382;2023-11-18T14:12:00;188.85;;;181.27;;